Time;durP1;ratioP1;P1;durP2;ratioP2;P2;SDS_P1;SDS_P2;PMS_P1;PMS_P2;Temp;Humidity;BMP_temperature;BMP_pressure;BME280_temperature;BME280_humidity;BME280_pressure;Samples;Min_cycle;Max_cycle;Signal;HPM_P1;HPM_P2
2022/02/04 00:20:53;;;;;;;115.45;55.08;;;;;;;-2.50;59.42;94546.14;1688462;85;21169;-49
2022/02/04 00:23:23;;;;;;;131.43;62.38;;;;;;;-2.57;59.23;94544.73;1687758;84;21035;-48
2022/02/04 00:28:26;;;;;;;73.78;34.75;;;;;;;-2.57;59.64;94554.72;1688737;85;21138;-49
2022/02/04 00:30:47;;;;;;;81.05;35.90;;;;;;;-2.55;59.58;94549.17;1684773;84;20955;-49
2022/02/04 00:33:11;;;;;;;93.60;42.95;;;;;;;-2.50;59.74;94548.08;1688075;84;21843;-48
2022/02/04 00:35:53;;;;;;;92.35;44.48;;;;;;;-2.37;59.50;94551.48;1688053;85;21015;-49
2022/02/04 00:38:18;;;;;;;111.45;48.95;;;;;;;-2.30;59.49;94557.51;1686826;83;21182;-49
2022/02/04 00:40:40;;;;;;;99.22;47.00;;;;;;;-2.30;59.49;94556.92;1687089;84;21060;-48
2022/02/04 00:43:08;;;;;;;113.35;52.17;;;;;;;-2.19;59.50;94560.50;1688375;84;21064;-48
2022/02/04 00:45:41;;;;;;;117.95;53.92;;;;;;;-2.21;59.43;94556.06;1687984;83;21185;-49
2022/02/04 00:48:17;;;;;;;91.47;42.93;;;;;;;-2.24;59.58;94554.67;1687616;84;20971;-49
2022/02/04 00:50:37;;;;;;;110.08;51.08;;;;;;;-2.27;59.53;94548.12;1668324;85;21507;-48
2022/02/04 00:53:13;;;;;;;97.15;45.25;;;;;;;-2.32;59.78;94539.60;1687641;84;20948;-49
2022/02/04 00:55:47;;;;;;;122.15;53.40;;;;;;;-2.29;60.12;94541.55;1687922;84;21498;-49
2022/02/04 01:28:06;;;;;;;146.87;65.78;;;;;;;-2.47;60.08;94527.89;1688526;85;21487;-49
2022/02/04 01:30:34;;;;;;;118.42;54.25;;;;;;;-2.58;60.34;94523.00;1670665;85;21047;-49
2022/02/04 01:33:03;;;;;;;101.35;49.80;;;;;;;-2.57;60.49;94525.89;1688399;84;21012;-49
2022/02/04 01:35:29;;;;;;;114.65;56.55;;;;;;;-2.54;60.70;94520.34;1688168;85;20971;-48
2022/02/04 01:37:57;;;;;;;120.85;64.17;;;;;;;-2.50;60.85;94521.91;1665168;85;21156;-49
2022/02/04 01:40:23;;;;;;;119.70;61.85;;;;;;;-2.39;60.95;94522.02;1688124;84;21063;-48
2022/02/04 01:42:50;;;;;;;123.18;64.85;;;;;;;-2.25;60.79;94515.41;1688490;84;20979;-48
2022/02/04 01:45:18;;;;;;;116.75;59.33;;;;;;;-2.12;60.35;94506.67;1670405;85;21007;-49
2022/02/04 01:47:54;;;;;;;131.45;60.55;;;;;;;-2.02;60.05;94514.64;1688577;85;21499;-50
2022/02/04 01:50:13;;;;;;;115.52;58.85;;;;;;;-2.04;59.94;94505.59;1670637;84;21194;-49
2022/02/04 01:52:40;;;;;;;112.12;52.50;;;;;;;-2.01;59.91;94515.63;1670476;85;20967;-50
2022/02/04 01:55:07;;;;;;;96.25;48.13;;;;;;;-1.97;59.70;94516.42;1688217;85;21027;-48
2022/02/04 01:57:35;;;;;;;93.90;46.37;;;;;;;-1.94;59.83;94510.87;1688172;85;21071;-50
2022/02/04 02:00:04;;;;;;;91.57;44.95;;;;;;;-1.85;59.54;94521.53;1688261;85;20948;-47
2022/02/04 02:02:33;;;;;;;87.90;42.67;;;;;;;-1.73;59.37;94520.65;1688361;85;21185;-48
2022/02/04 02:05:00;;;;;;;83.40;42.62;;;;;;;-1.66;59.00;94515.30;1688197;85;21000;-49
2022/02/04 02:07:28;;;;;;;97.57;47.43;;;;;;;-1.60;58.73;94520.55;1670707;85;21040;-48
2022/02/04 02:12:25;;;;;;;116.97;56.40;;;;;;;-1.74;58.53;94516.97;1670506;85;20963;-49
2022/02/04 02:15:01;;;;;;;115.32;57.00;;;;;;;-1.90;59.17;94515.70;1671116;85;21164;-49
2022/02/04 02:37:13;;;;;;;105.10;49.58;;;;;;;-3.15;61.88;94524.86;1671029;85;20956;-48
2022/02/04 02:52:09;;;;;;;114.70;52.85;;;;;;;-3.63;63.31;94520.17;1672887;84;21443;-48
2022/02/04 02:54:51;;;;;;;132.80;64.00;;;;;;;-3.73;63.19;94516.78;1670981;85;21115;-49
2022/02/04 02:59:43;;;;;;;124.05;61.20;;;;;;;-3.77;63.75;94518.63;1688379;85;21490;-50
2022/02/04 03:01:59;;;;;;;106.72;50.92;;;;;;;-3.74;63.33;94521.92;1670257;85;20984;-49
2022/02/04 03:04:25;;;;;;;122.28;57.73;;;;;;;-3.85;63.49;94522.35;1670600;85;21039;-49
2022/02/04 03:06:52;;;;;;;117.53;56.40;;;;;;;-3.83;63.54;94522.77;1688403;85;21222;-49
2022/02/04 03:09:20;;;;;;;97.10;46.92;;;;;;;-3.92;63.35;94512.83;1670918;85;21024;-48
2022/02/04 03:11:46;;;;;;;154.30;82.75;;;;;;;-4.03;63.62;94515.36;1688328;85;21003;-49
2022/02/04 03:14:13;;;;;;;99.50;46.35;;;;;;;-4.13;63.86;94517.88;1688242;85;21043;-50
2022/02/04 03:16:40;;;;;;;102.90;48.70;;;;;;;-4.09;64.03;94517.39;1670641;85;21440;-50
2022/02/04 03:19:08;;;;;;;85.12;39.23;;;;;;;-4.14;63.65;94512.30;1688509;85;21821;-49
2022/02/04 03:21:39;;;;;;;70.55;35.73;;;;;;;-4.30;63.62;94518.38;1670950;85;21019;-49
2022/02/04 03:24:12;;;;;;;78.92;38.28;;;;;;;-4.50;63.80;94519.57;1669411;85;21074;-49
2022/02/04 03:29:03;;;;;;;74.55;36.45;;;;;;;-4.77;64.46;94519.30;1688630;84;21012;-49
2022/02/04 03:31:38;;;;;;;71.95;35.45;;;;;;;-4.85;64.79;94518.39;1688220;85;21173;-49
2022/02/04 03:33:59;;;;;;;83.58;40.43;;;;;;;-4.91;64.96;94519.03;1671059;85;21043;-49
2022/02/04 03:36:26;;;;;;;83.70;42.53;;;;;;;-5.02;64.99;94518.05;1688386;85;21012;-49
2022/02/04 03:38:53;;;;;;;93.75;41.75;;;;;;;-5.13;65.35;94522.45;1693829;84;21063;-49
2022/02/04 03:41:19;;;;;;;115.95;54.20;;;;;;;-5.18;65.46;94525.42;1688417;85;21051;-49
2022/02/04 03:43:46;;;;;;;117.30;53.25;;;;;;;-5.20;65.90;94519.62;1688417;85;21167;-49
2022/02/04 03:46:12;;;;;;;131.30;58.23;;;;;;;-5.16;65.72;94513.78;1670639;85;21420;-49
2022/02/04 03:48:39;;;;;;;133.00;58.75;;;;;;;-5.23;65.90;94523.80;1688716;85;21464;-47
2022/02/04 03:51:05;;;;;;;119.28;52.90;;;;;;;-5.26;65.93;94516.47;1688293;83;21047;-49
2022/02/04 03:53:33;;;;;;;121.40;56.00;;;;;;;-5.23;66.06;94516.30;1688258;85;21519;-49
2022/02/04 03:56:00;;;;;;;136.65;63.35;;;;;;;-5.33;65.87;94514.20;1688274;85;21109;-48
2022/02/04 03:58:27;;;;;;;156.32;70.62;;;;;;;-5.40;66.05;94511.95;1688351;85;21011;-48
2022/02/04 04:00:55;;;;;;;156.57;74.12;;;;;;;-5.32;66.42;94510.40;1671079;85;21011;-49
2022/02/04 04:03:21;;;;;;;211.43;98.37;;;;;;;-5.23;66.20;94510.94;1671152;85;21004;-49
2022/02/04 04:05:49;;;;;;;199.95;89.83;;;;;;;-5.13;66.28;94509.80;1670577;85;20963;-49
2022/02/04 04:08:17;;;;;;;177.75;81.92;;;;;;;-4.95;66.17;94510.16;1670891;85;21887;-49
2022/02/04 04:10:45;;;;;;;191.40;87.40;;;;;;;-4.79;65.81;94510.84;1670858;85;21019;-49
2022/02/04 04:13:14;;;;;;;199.60;87.45;;;;;;;-4.62;65.53;94504.43;1688425;84;21062;-49
2022/02/04 04:15:42;;;;;;;199.38;90.87;;;;;;;-4.42;65.56;94519.92;1688331;85;21448;-49
2022/02/04 04:18:13;;;;;;;189.70;88.72;;;;;;;-4.18;64.94;94518.19;1647977;85;20991;-49
2022/02/04 04:20:44;;;;;;;177.72;85.22;;;;;;;-4.06;64.27;94521.45;1688533;85;21990;-51
2022/02/04 04:23:11;;;;;;;144.70;67.08;;;;;;;-4.06;63.71;94521.45;1688850;85;20963;-51
2022/02/04 04:25:39;;;;;;;166.97;79.50;;;;;;;-4.17;63.21;94515.16;1688274;85;21019;-49
2022/02/04 04:28:05;;;;;;;166.80;75.50;;;;;;;-4.40;63.08;94511.70;1688483;84;21011;-49
2022/02/04 04:30:34;;;;;;;152.15;74.47;;;;;;;-4.58;63.49;94521.94;1688409;85;21035;-49
2022/02/04 04:33:01;;;;;;;158.05;74.67;;;;;;;-4.63;63.76;94514.19;1688450;84;21154;-51
2022/02/04 04:35:28;;;;;;;197.07;96.85;;;;;;;-4.63;64.07;94518.22;1688153;85;21042;-49
2022/02/04 04:38:12;;;;;;;168.35;77.32;;;;;;;-4.65;63.81;94517.22;1688212;85;21071;-48
2022/02/04 05:29:20;;;;;;;99.13;49.18;;;;;;;-4.67;63.80;94504.73;1688359;85;21393;-52
2022/02/04 05:31:48;;;;;;;111.40;53.10;;;;;;;-4.57;63.97;94500.68;1688385;84;21083;-53
2022/02/04 05:34:16;;;;;;;96.65;44.30;;;;;;;-4.47;64.18;94496.04;1670594;85;21028;-54
2022/02/04 05:36:46;;;;;;;81.37;39.70;;;;;;;-4.35;63.65;94500.68;1670968;85;21602;-47
2022/02/04 05:39:13;;;;;;;140.30;68.42;;;;;;;-4.38;63.91;94495.24;1685860;85;21420;-47
2022/02/04 05:41:45;;;;;;;134.97;65.25;;;;;;;-4.47;62.92;94494.70;1670765;85;20972;-48
2022/02/04 05:44:12;;;;;;;153.70;74.37;;;;;;;-4.65;63.06;94500.33;1688016;83;21055;-48
2022/02/04 05:47:08;;;;;;;149.02;74.62;;;;;;;-4.77;63.24;94497.84;1688194;84;20963;-51
2022/02/04 05:49:09;;;;;;;179.50;89.03;;;;;;;-4.79;63.18;94501.45;1672904;85;21071;-50
2022/02/04 05:57:14;;;;;;;158.87;77.78;;;;;;;-5.12;63.78;94501.97;1688152;85;21063;-51
2022/02/04 06:22:50;;;;;;;171.68;83.80;;;;;;;-3.86;63.30;94515.44;1672739;83;20986;-48
2022/02/04 06:25:15;;;;;;;170.17;84.72;;;;;;;-3.79;63.29;94512.28;1650037;84;21603;-48
2022/02/04 06:27:41;;;;;;;185.37;89.10;;;;;;;-3.76;63.00;94510.77;1679304;83;21609;-48
2022/02/04 06:30:10;;;;;;;187.05;93.75;;;;;;;-3.71;63.08;94509.12;1619754;86;21833;-50
2022/02/04 06:32:38;;;;;;;227.13;108.03;;;;;;;-3.73;63.12;94508.72;1606914;87;20975;-50
2022/02/04 06:35:11;;;;;;;199.12;98.37;;;;;;;-3.69;63.40;94514.91;1646563;84;21534;-49
2022/02/04 06:37:35;;;;;;;117.70;58.08;;;;;;;-3.52;63.96;94506.52;1675015;83;21441;-51
2022/02/04 06:40:02;;;;;;;190.62;93.70;;;;;;;-3.35;63.97;94511.91;1660757;84;21023;-49
2022/02/04 06:42:30;;;;;;;198.80;95.53;;;;;;;-3.19;64.24;94518.67;1693987;84;21139;-48
2022/02/04 06:44:57;;;;;;;195.75;95.83;;;;;;;-2.94;64.10;94520.28;1649865;84;21068;-48
2022/02/04 06:47:25;;;;;;;188.47;95.85;;;;;;;-2.80;63.68;94518.55;1662346;84;21123;-48
2022/02/04 06:49:52;;;;;;;223.25;115.72;;;;;;;-2.70;63.34;94509.79;1652203;84;21544;-50
2022/02/04 06:52:20;;;;;;;277.35;141.97;;;;;;;-2.76;62.20;94505.10;1683428;84;21042;-47
2022/02/04 06:54:46;;;;;;;244.07;124.62;;;;;;;-2.79;63.07;94503.94;1647778;84;21149;-48
2022/02/04 06:57:12;;;;;;;227.80;109.90;;;;;;;-2.64;62.90;94500.25;1653483;84;21117;-50
2022/02/04 06:59:42;;;;;;;208.53;104.50;;;;;;;-2.53;62.67;94495.73;1682029;82;21069;-49
2022/02/04 07:02:08;;;;;;;204.50;103.65;;;;;;;-2.52;62.48;94495.93;1701642;83;21119;-49
2022/02/04 07:04:37;;;;;;;217.03;113.83;;;;;;;-2.49;62.58;94499.22;1690763;83;21026;-53
2022/02/04 07:07:06;;;;;;;269.95;136.95;;;;;;;-2.43;63.11;94491.59;1675251;83;21849;-54
2022/02/04 07:14:47;;;;;;;187.43;99.97;;;;;;;-1.61;62.78;94483.16;1661169;85;21087;-50
2022/02/04 07:17:15;;;;;;;206.60;109.27;;;;;;;-1.38;62.59;94475.58;1683938;83;21037;-54
2022/02/04 07:19:46;;;;;;;192.82;97.27;;;;;;;-1.08;62.12;94479.59;1667498;84;21226;-48
2022/02/04 07:22:26;;;;;;;238.82;124.80;;;;;;;-0.84;61.37;94480.81;1648907;84;21001;-50
2022/02/04 07:24:56;;;;;;;229.38;119.45;;;;;;;-0.79;61.04;94467.72;1649991;83;21017;-51
2022/02/04 07:27:24;;;;;;;202.82;102.27;;;;;;;-0.61;60.92;94471.83;1664985;84;21075;-53
2022/02/04 07:29:52;;;;;;;184.60;99.17;;;;;;;-0.46;60.53;94466.62;1676622;83;21069;-52
2022/02/04 07:32:32;;;;;;;179.68;94.13;;;;;;;-0.45;60.22;94466.25;1662775;84;21179;-52
2022/02/04 07:42:57;;;;;;;177.55;96.15;;;;;;;0.43;59.61;94451.52;1652706;83;21018;-52
2022/02/04 07:45:24;;;;;;;164.77;88.58;;;;;;;0.62;59.39;94453.80;1678695;82;21082;-49
2022/02/04 07:47:51;;;;;;;158.65;83.00;;;;;;;0.84;59.34;94451.23;1670269;84;21737;-52
2022/02/04 07:50:20;;;;;;;191.55;91.28;;;;;;;1.14;59.15;94439.89;1629846;85;20998;-49
2022/02/04 07:52:49;;;;;;;278.62;103.70;;;;;;;1.39;58.52;94437.23;1674982;84;22077;-50
2022/02/04 07:55:16;;;;;;;296.23;111.22;;;;;;;1.71;58.33;94437.78;1658217;82;22196;-57
2022/02/04 07:57:44;;;;;;;216.90;95.53;;;;;;;2.05;57.37;94438.11;1649597;85;22120;-49
2022/02/04 08:00:15;;;;;;;166.90;80.75;;;;;;;2.16;56.37;94427.16;1678941;83;21073;-52
2022/02/04 08:02:46;;;;;;;151.07;74.77;;;;;;;2.25;56.15;94433.67;1668984;83;21054;-53
2022/02/04 08:05:16;;;;;;;140.62;79.60;;;;;;;2.34;56.09;94430.48;1666879;84;21036;-49
2022/02/04 08:07:54;;;;;;;142.47;78.75;;;;;;;2.34;55.77;94430.48;1671858;84;21025;-52
2022/02/04 08:10:35;;;;;;;130.65;70.28;;;;;;;2.36;55.71;94430.25;1678221;84;21160;-54
2022/02/04 08:18:33;;;;;;;;;;;;;;;;;;;;;
2022/02/04 08:26:34;;;;;;;167.35;89.90;;;;;;;2.67;55.45;94425.70;1643492;85;21052;-50
2022/02/04 08:28:48;;;;;;;188.60;96.05;;;;;;;2.73;54.97;94429.50;1640001;85;21068;-58
2022/02/04 08:50:54;;;;;;;312.95;167.05;;;;;;;2.95;54.13;94422.64;1735317;80;21066;-52
2022/02/04 08:58:24;;;;;;;198.13;107.32;;;;;;;3.27;54.00;94422.42;1726599;81;21045;-57
2022/02/04 09:00:45;;;;;;;186.15;101.50;;;;;;;3.44;53.71;94413.27;1726851;80;21038;-51
2022/02/04 09:03:14;;;;;;;190.00;102.97;;;;;;;3.59;53.81;94420.83;1722798;81;21474;-50
2022/02/04 09:05:41;;;;;;;204.75;101.55;;;;;;;3.78;53.41;94418.80;1723103;81;21060;-50
2022/02/04 09:08:29;;;;;;;153.23;84.32;;;;;;;3.94;53.13;94425.74;1717421;81;22319;-50
2022/02/04 09:10:53;;;;;;;128.45;69.85;;;;;;;4.03;52.86;94417.81;1731648;81;21100;-52
2022/02/04 09:19:03;;;;;;;107.07;61.48;;;;;;;4.19;52.27;94417.16;1698498;80;21531;-52
2022/02/04 09:21:48;;;;;;;88.47;51.15;;;;;;;4.27;52.21;94413.91;1737599;80;21316;-52
2022/02/04 09:23:54;;;;;;;61.48;36.80;;;;;;;4.28;52.34;94412.72;1714620;80;21048;-51
2022/02/04 09:26:20;;;;;;;65.62;36.65;;;;;;;4.47;52.13;94413.96;1731218;80;21057;-51
2022/02/04 09:28:47;;;;;;;72.55;40.20;;;;;;;4.58;51.15;94415.31;1696305;81;21179;-50
2022/02/04 09:31:14;;;;;;;58.42;33.28;;;;;;;4.58;51.15;94409.11;1738910;80;21100;-52
2022/02/04 09:33:42;;;;;;;56.23;33.85;;;;;;;4.68;50.74;94410.27;1742114;80;22254;-51
2022/02/04 09:36:09;;;;;;;219.20;81.22;;;;;;;4.78;50.76;94406.56;1729990;80;21053;-50
2022/02/04 09:38:36;;;;;;;184.82;66.12;;;;;;;4.95;50.14;94408.18;1705148;82;21006;-49
2022/02/04 09:41:03;;;;;;;220.57;79.75;;;;;;;5.16;49.96;94402.91;1700655;82;20990;-59
2022/02/04 09:43:30;;;;;;;163.72;65.83;;;;;;;5.25;49.87;94404.63;1698728;82;21082;-51
2022/02/04 09:45:57;;;;;;;127.85;52.95;;;;;;;5.41;49.73;94397.11;1697942;82;21766;-54
2022/02/04 09:48:24;;;;;;;104.50;47.73;;;;;;;5.60;49.01;94392.21;1711678;82;21502;-53
2022/02/04 09:50:54;;;;;;;85.17;40.12;;;;;;;5.83;48.26;94386.64;1722413;82;21066;-49
2022/02/04 10:15:58;;;;;;;20.85;15.45;;;;;;;6.63;45.40;94364.72;1703755;82;21155;-51
2022/02/04 10:18:32;;;;;;;21.62;14.05;;;;;;;6.43;45.88;94364.86;1717487;82;21506;-49
2022/02/04 10:20:54;;;;;;;18.90;12.37;;;;;;;6.26;46.32;94369.39;1714253;81;21116;-52
2022/02/04 10:23:21;;;;;;;29.05;15.35;;;;;;;6.20;46.50;94365.65;1712387;81;21569;-50
2022/02/04 10:25:47;;;;;;;26.62;15.72;;;;;;;6.26;46.21;94355.73;1701224;81;21141;-50
2022/02/04 10:28:27;;;;;;;16.87;12.55;;;;;;;6.32;46.39;94356.77;1692958;82;21102;-49
2022/02/04 10:31:18;;;;;;;21.30;13.62;;;;;;;6.44;45.98;94351.95;1717355;81;21136;-49
2022/02/04 10:33:56;;;;;;;22.85;13.20;;;;;;;6.68;45.93;94357.38;1701632;82;21076;-50
2022/02/04 10:37:21;;;;;;;20.50;13.22;;;;;;;6.84;45.40;94349.11;1708494;82;21062;-49
2022/02/04 10:56:26;;;;;;;16.52;9.13;;;;;;;7.43;44.57;94329.02;1707998;82;21484;-51
2022/02/04 11:01:36;;;;;;;15.60;8.43;;;;;;;7.45;44.75;94332.66;1727768;80;21045;-53
2022/02/04 11:03:55;;;;;;;11.88;8.53;;;;;;;7.45;44.31;94327.97;1713246;82;21222;-52
2022/02/04 11:06:50;;;;;;;11.38;8.00;;;;;;;7.50;44.16;94326.67;1709593;81;21164;-53
2022/02/04 11:09:09;;;;;;;15.50;9.23;;;;;;;7.65;43.62;94316.20;1715762;82;21046;-59
2022/02/04 11:11:52;;;;;;;13.90;10.50;;;;;;;7.78;43.55;94321.67;1734276;81;21054;-54
2022/02/04 11:36:13;;;;;;;13.75;7.90;;;;;;;8.86;40.75;94286.48;1670341;83;21113;-54
2022/02/04 11:52:37;;;;;;;8.93;6.67;;;;;;;7.75;42.84;94268.58;1714030;82;21062;-51
2022/02/04 11:55:14;;;;;;;8.58;5.62;;;;;;;7.58;43.03;94264.43;1720240;81;21600;-53
2022/02/04 11:58:03;;;;;;;7.60;6.35;;;;;;;7.44;43.50;94264.87;1695317;82;21126;-50
2022/02/04 12:00:38;;;;;;;6.80;6.12;;;;;;;7.30;43.50;94261.20;1703795;82;21739;-51
2022/02/04 12:03:36;;;;;;;15.48;11.88;;;;;;;7.23;43.48;94258.69;1710503;81;21578;-53
2022/02/04 12:06:01;;;;;;;8.80;6.80;;;;;;;7.25;43.89;94260.97;1689268;82;21093;-52
2022/02/04 12:08:30;;;;;;;55.43;40.50;;;;;;;7.25;43.84;94260.38;1691540;82;21038;-56
2022/02/04 12:10:59;;;;;;;43.35;29.57;;;;;;;7.33;43.57;94256.21;1672530;85;21107;-53
2022/02/04 12:13:27;;;;;;;12.73;9.65;;;;;;;7.42;43.38;94253.59;1637593;85;21160;-50
2022/02/04 12:16:07;;;;;;;17.15;13.60;;;;;;;7.62;43.48;94256.09;1637479;85;21021;-50
2022/02/04 12:18:44;;;;;;;10.13;7.62;;;;;;;7.75;42.85;94252.15;1687531;83;21130;-54
2022/02/04 12:21:18;;;;;;;11.70;9.15;;;;;;;7.73;42.74;94255.16;1669597;84;21065;-50
2022/02/04 12:23:48;;;;;;;11.03;7.72;;;;;;;7.64;43.46;94265.40;1663207;84;21390;-53
2022/02/04 12:26:19;;;;;;;9.75;8.75;;;;;;;7.60;42.86;94258.50;1655132;85;21114;-53
2022/02/04 12:29:06;;;;;;;9.03;7.60;;;;;;;7.63;43.14;94256.25;1661001;85;21161;-54
2022/02/04 12:31:44;;;;;;;6.03;5.42;;;;;;;7.80;43.41;94251.58;1660110;85;21050;-52
2022/02/04 12:34:18;;;;;;;7.78;5.92;;;;;;;7.90;42.29;94260.03;1652510;84;21076;-54
2022/02/04 12:36:48;;;;;;;9.38;8.43;;;;;;;7.82;42.65;94256.02;1631418;86;21065;-50
2022/02/04 12:39:22;;;;;;;11.93;10.65;;;;;;;7.94;42.97;94257.97;1654776;85;21568;-52
2022/02/04 12:41:52;;;;;;;7.47;6.70;;;;;;;8.07;42.69;94253.83;1718442;82;21034;-54
2022/02/04 12:44:24;;;;;;;8.93;7.25;;;;;;;8.20;42.25;94246.34;1723851;81;21525;-52
2022/02/04 12:46:55;;;;;;;11.55;8.13;;;;;;;8.30;41.97;94247.37;1706635;82;21476;-54
2022/02/04 12:49:26;;;;;;;8.03;6.42;;;;;;;8.30;41.59;94246.59;1717639;82;21006;-51
2022/02/04 12:54:48;;;;;;;14.33;9.23;;;;;;;8.58;41.62;94250.47;1725663;81;21128;-50
2022/02/04 13:00:02;;;;;;;8.88;5.83;;;;;;;8.64;40.90;94241.82;1709176;82;21533;-53
2022/02/04 13:07:49;;;;;;;15.63;9.55;;;;;;;8.81;40.77;94235.55;1707671;82;21023;-54
2022/02/04 13:10:20;;;;;;;;;;;;;;;8.69;41.15;94231.67;1718061;81;21085;-49
2022/02/04 13:12:53;;;;;;;7.50;5.85;;;;;;;8.67;41.13;94231.36;1719590;81;20214;-50
2022/02/04 13:15:20;;;;;;;6.42;5.05;;;;;;;8.60;40.75;94216.52;1710088;81;21585;-52
2022/02/04 13:17:47;;;;;;;5.70;4.85;;;;;;;8.49;40.31;94230.45;1714497;82;21194;-52
2022/02/04 13:20:16;;;;;;;9.08;6.37;;;;;;;8.16;40.69;94220.42;1710909;81;21469;-51
2022/02/04 13:22:43;;;;;;;6.53;5.80;;;;;;;7.90;41.49;94216.22;1719349;81;21081;-52
2022/02/04 13:25:17;;;;;;;11.33;7.22;;;;;;;7.80;41.77;94215.98;1708324;82;21268;-50
2022/02/04 13:28:15;;;;;;;5.35;4.83;;;;;;;7.72;42.28;94213.30;1708297;82;21065;-52
2022/02/04 13:31:06;;;;;;;9.83;5.85;;;;;;;7.64;42.02;94212.02;1710304;81;21137;-50
2022/02/04 13:33:40;;;;;;;7.08;5.67;;;;;;;7.48;42.42;94212.77;1700364;82;21077;-51
2022/02/04 13:36:30;;;;;;;9.23;6.33;;;;;;;7.31;42.93;94210.00;1708848;82;22158;-49
2022/02/04 13:46:57;;;;;;;9.63;5.85;;;;;;;6.64;44.79;94203.64;1694157;82;21101;-52
2022/02/04 13:52:16;;;;;;;12.30;8.08;;;;;;;6.60;44.96;94200.25;1711986;82;20974;-52
2022/02/04 14:00:28;;;;;;;19.40;11.48;;;;;;;6.46;46.08;94193.23;1701414;82;21513;-50
2022/02/04 14:02:53;;;;;;;12.80;9.80;;;;;;;6.45;46.46;94188.98;1713881;82;21008;-51
2022/02/04 14:05:30;;;;;;;14.95;10.80;;;;;;;6.34;46.68;94204.89;1723822;81;21068;-51
2022/02/04 14:08:06;;;;;;;17.62;10.08;;;;;;;6.28;47.19;94194.92;1708815;82;21045;-53
2022/02/04 14:10:45;;;;;;;14.87;10.23;;;;;;;6.21;47.34;94192.41;1705242;82;21784;-51
2022/02/04 14:13:11;;;;;;;12.53;8.48;;;;;;;6.13;47.60;94197.91;1731261;81;21187;-50
2022/02/04 14:15:42;;;;;;;13.38;8.30;;;;;;;6.10;48.05;94196.02;1712190;82;20990;-50
2022/02/04 14:18:11;;;;;;;17.75;10.43;;;;;;;6.04;48.16;94201.84;1710459;82;21060;-54
2022/02/04 14:20:41;;;;;;;14.80;9.30;;;;;;;6.06;48.31;94200.22;1716549;81;20973;-52
2022/02/04 14:23:10;;;;;;;12.50;8.63;;;;;;;6.00;48.62;94191.63;1703083;81;21100;-54
2022/02/04 14:25:55;;;;;;;18.92;10.40;;;;;;;5.91;48.77;94199.66;1708368;82;21111;-50
2022/02/04 14:28:25;;;;;;;13.18;8.68;;;;;;;5.84;48.91;94193.80;1712059;81;21132;-53
2022/02/04 14:30:57;;;;;;;27.25;16.02;;;;;;;5.81;49.15;94191.91;1708566;82;21101;-51
2022/02/04 14:36:13;;;;;;;14.13;10.93;;;;;;;5.79;49.07;94188.09;1646027;84;21325;-53
2022/02/04 15:02:52;;;;;;;18.55;10.28;;;;;;;5.34;49.28;94194.86;1703477;82;21170;-51
2022/02/04 15:05:17;;;;;;;13.83;9.00;;;;;;;5.26;49.07;94196.20;1707316;82;21711;-52
2022/02/04 15:07:43;;;;;;;17.15;9.80;;;;;;;5.19;48.87;94192.87;1707463;82;21073;-51
2022/02/04 15:10:16;;;;;;;13.53;9.45;;;;;;;5.11;49.41;94193.50;1709845;82;21030;-49
2022/02/04 15:12:39;;;;;;;17.90;11.73;;;;;;;5.01;49.83;94195.86;1703380;81;21041;-48
2022/02/04 15:15:06;;;;;;;22.35;12.73;;;;;;;4.91;49.54;94199.00;1701308;82;21236;-52
2022/02/04 15:17:34;;;;;;;17.15;11.95;;;;;;;4.81;49.96;94197.89;1710871;82;21113;-51
2022/02/04 15:20:01;;;;;;;16.20;11.18;;;;;;;4.71;50.08;94198.30;1708415;82;21093;-51
2022/02/04 15:22:28;;;;;;;23.12;13.28;;;;;;;4.65;50.15;94199.99;1710544;82;21066;-50
2022/02/04 15:24:59;;;;;;;22.20;13.98;;;;;;;4.61;50.33;94202.61;1711021;82;21479;-50
2022/02/04 15:27:23;;;;;;;22.70;14.23;;;;;;;4.56;50.30;94203.88;1648917;85;21156;-50
2022/02/04 15:29:52;;;;;;;24.25;15.32;;;;;;;4.49;49.88;94210.84;1651052;85;21038;-49
2022/02/04 15:32:19;;;;;;;29.65;16.90;;;;;;;4.43;49.98;94207.06;1661571;85;21023;-50
2022/02/04 15:34:46;;;;;;;20.00;13.78;;;;;;;4.34;50.18;94208.23;1703962;82;21105;-50
2022/02/04 15:37:14;;;;;;;23.98;15.23;;;;;;;4.30;50.46;94206.77;1706409;82;21293;-49
2022/02/04 15:39:40;;;;;;;32.78;20.68;;;;;;;4.28;50.34;94204.45;1688337;82;21286;-49
2022/02/04 15:42:12;;;;;;;22.02;13.93;;;;;;;4.24;50.44;94198.31;1722582;82;21467;-50
2022/02/04 15:44:41;;;;;;;34.10;17.05;;;;;;;4.22;50.29;94195.25;1707469;81;21023;-49
2022/02/04 16:00:50;;;;;;;95.85;59.27;;;;;;;4.15;51.00;94214.45;1706108;83;21022;-49
2022/02/04 16:05:47;;;;;;;62.95;42.10;;;;;;;4.17;51.63;94207.22;1718737;82;21179;-49
2022/02/04 16:08:17;;;;;;;58.23;40.70;;;;;;;4.12;51.91;94218.59;1694521;82;21513;-51
2022/02/04 16:18:59;;;;;;;88.15;51.63;;;;;;;3.67;52.73;94213.44;1737208;81;22339;-48
2022/02/04 16:21:22;;;;;;;62.67;39.25;;;;;;;3.58;52.87;94209.90;1735789;81;21052;-50
2022/02/04 16:28:49;;;;;;;62.60;39.45;;;;;;;3.32;53.17;94207.83;1734496;81;21093;-50
2022/02/04 16:31:17;;;;;;;209.90;89.05;;;;;;;3.33;53.22;94199.85;1740511;80;21713;-50
2022/02/04 16:33:45;;;;;;;274.75;114.05;;;;;;;3.32;53.61;94213.27;1718148;81;21584;-51
2022/02/04 16:36:14;;;;;;;230.12;97.00;;;;;;;3.28;54.17;94219.36;1708596;81;20999;-50
2022/02/04 16:38:44;;;;;;;239.95;97.33;;;;;;;3.21;54.42;94216.77;1710623;83;21050;-52
2022/02/04 16:41:13;;;;;;;216.75;89.30;;;;;;;3.14;54.59;94223.08;1708039;83;21015;-51
2022/02/04 16:43:40;;;;;;;103.25;47.50;;;;;;;3.04;54.66;94219.17;1710975;82;21157;-50
2022/02/04 16:46:07;;;;;;;104.38;52.53;;;;;;;2.93;54.88;94226.13;1708653;83;21073;-52
2022/02/04 16:48:35;;;;;;;95.05;50.10;;;;;;;2.84;54.97;94222.39;1709425;82;21135;-53
2022/02/04 16:51:07;;;;;;;74.35;41.98;;;;;;;2.80;55.30;94217.58;1709928;83;21522;-50
2022/02/04 16:53:35;;;;;;;128.38;66.72;;;;;;;2.84;55.03;94221.78;1709493;82;21082;-49
2022/02/04 16:56:03;;;;;;;134.05;67.82;;;;;;;2.89;55.13;94220.56;1709636;82;21765;-50
2022/02/04 16:58:30;;;;;;;111.40;61.05;;;;;;;2.81;55.63;94227.26;1709919;83;20966;-49
2022/02/04 17:00:58;;;;;;;143.97;81.80;;;;;;;2.72;55.45;94220.23;1709227;82;21045;-49
2022/02/04 17:03:25;;;;;;;105.45;57.48;;;;;;;2.71;55.39;94233.02;1683874;83;20977;-52
2022/02/04 17:05:55;;;;;;;113.55;61.02;;;;;;;2.72;55.68;94229.73;1708346;83;21009;-48
2022/02/04 17:08:33;;;;;;;114.57;64.10;;;;;;;2.63;55.93;94230.23;1680084;84;21010;-50
2022/02/04 17:10:54;;;;;;;103.67;56.95;;;;;;;2.61;56.12;94233.17;1686638;82;21118;-50
2022/02/04 17:13:23;;;;;;;112.68;62.33;;;;;;;2.64;56.42;94225.56;1712633;83;20972;-49
2022/02/04 17:15:49;;;;;;;108.78;58.08;;;;;;;2.65;56.37;94235.27;1710622;82;21023;-49
2022/02/04 17:18:16;;;;;;;160.97;77.30;;;;;;;2.68;56.47;94236.56;1692127;83;21062;-49
2022/02/04 17:20:43;;;;;;;194.80;93.42;;;;;;;2.66;56.70;94232.73;1687553;83;21166;-49
2022/02/04 17:23:12;;;;;;;192.43;91.90;;;;;;;2.66;56.85;94234.09;1709700;82;20991;-49
2022/02/04 17:25:39;;;;;;;176.42;91.57;;;;;;;2.72;56.89;94232.45;1708061;83;21003;-50
2022/02/04 17:28:06;;;;;;;172.30;90.00;;;;;;;2.75;56.92;94228.33;1709666;83;21411;-50
2022/02/04 17:30:32;;;;;;;191.80;107.97;;;;;;;2.80;56.81;94231.94;1708956;83;21030;-49
2022/02/04 17:33:00;;;;;;;201.62;107.67;;;;;;;2.77;56.94;94229.27;1698953;83;21144;-49
2022/02/04 17:35:27;;;;;;;189.30;100.18;;;;;;;2.69;57.27;94234.62;1666158;82;21144;-49
2022/02/04 17:37:57;;;;;;;166.47;90.07;;;;;;;2.66;57.29;94224.59;1709168;83;21495;-50
2022/02/04 17:40:25;;;;;;;160.05;86.20;;;;;;;2.58;57.29;94229.34;1710136;82;21463;-50
2022/02/04 17:42:52;;;;;;;174.97;90.90;;;;;;;2.57;57.45;94225.67;1709505;83;21031;-50
2022/02/04 17:45:21;;;;;;;163.77;81.45;;;;;;;2.60;57.16;94228.34;1708271;83;21112;-50
2022/02/04 17:50:32;;;;;;;135.57;67.90;;;;;;;2.61;56.92;94218.23;1678449;83;21010;-48
2022/02/04 17:53:08;;;;;;;74.42;36.65;;;;;;;2.58;56.47;94221.78;1708323;83;21425;-52
2022/02/04 17:55:29;;;;;;;91.45;48.33;;;;;;;2.55;55.57;94215.81;1707422;83;21556;-50
2022/02/04 17:58:12;;;;;;;31.40;20.32;;;;;;;2.54;55.74;94218.34;1708286;83;21168;-50
2022/02/04 18:06:09;;;;;;;23.12;14.38;;;;;;;2.29;54.74;94211.13;1702639;83;21054;-50